M I D A S
Marine Information and Data Acquisition System
Tripno 2026 of the Zeeleeuw from 2010-11-25 07:16:49 to 2010-11-25 15:35:39
Back to CruiseResearch ActivitiesStationsMapUnderway DataData graphs

EquipmentUnitsComment
TimeDGPSUTC
LatitudeDGPSDM.mWGS84
LongitudeDGPSDM.mWGS84
HeadingGyrodeg 
SOGDGPSknotsSpeed over ground
COGDGPSdegCourse over ground
DepthEcho soundermeters200 kHz
Missing or incorrect values are displayed as -999
Navigation data collected by the RV Zeeleeuw from 2010-11-25 07:11:19 to 2010-11-25 15:47:48
                                                                                    Next 1000 lines
Time Latitude Longitude Heading SOG COG Depth
2010-11-25 07:11:29 51°13.663 2°55.959 124 0.2 179 7.2
2010-11-25 07:11:35 51°13.663 2°55.959 124.8 0.1 194 7.2
2010-11-25 07:11:39 51°13.662 2°55.959 125.9 0.1 151 7.2
2010-11-25 07:11:44 51°13.662 2°55.959 126.7 -999 84 7.2
2010-11-25 07:11:50 51°13.662 2°55.959 127 -999 356 7.1
2010-11-25 07:11:55 51°13.662 2°55.959 127.1 -999 350 7.1
2010-11-25 07:11:59 51°13.662 2°55.959 127.1 -999 14 7.1
2010-11-25 07:12:04 51°13.662 2°55.959 127 -999 144 7.1
2010-11-25 07:12:10 51°13.662 2°55.959 127 -999 322 7.1
2010-11-25 07:12:15 51°13.662 2°55.959 127 -999 171 7.2
2010-11-25 07:12:19 51°13.662 2°55.959 127 -999 353 7.2
2010-11-25 07:12:24 51°13.662 2°55.959 127 -999 170 7.1
2010-11-25 07:12:29 51°13.662 2°55.959 127 -999 16 7.2
2010-11-25 07:12:35 51°13.662 2°55.959 127 -999 186 7.1
2010-11-25 07:12:39 51°13.662 2°55.959 127 -999 165 7.1
2010-11-25 07:12:44 51°13.662 2°55.959 127 -999 147 7.1
2010-11-25 07:12:50 51°13.662 2°55.959 127 0.1 237 7.2
2010-11-25 07:12:55 51°13.662 2°55.959 127 -999 168 7.1
2010-11-25 07:12:59 51°13.662 2°55.959 127 0.1 184 7.1
2010-11-25 07:13:04 51°13.662 2°55.959 126.9 -999 134 7.1
2010-11-25 07:13:09 51°13.662 2°55.959 126.9 -999 165 7.2
2010-11-25 07:13:14 51°13.663 2°55.959 126.9 -999 15 7.1
2010-11-25 07:13:19 51°13.663 2°55.959 126.9 -999 26 7.1
2010-11-25 07:13:24 51°13.662 2°55.959 126.9 -999 5 7.1
2010-11-25 07:13:29 51°13.662 2°55.959 127 -999 189 7.1
2010-11-25 07:13:34 51°13.662 2°55.959 127 -999 169 7.1
2010-11-25 07:13:39 51°13.662 2°55.958 127.1 -999 153 7.1
2010-11-25 07:13:44 51°13.662 2°55.958 127.2 -999 200 7.1
2010-11-25 07:13:49 51°13.662 2°55.958 127.3 -999 58 7.1
2010-11-25 07:13:54 51°13.662 2°55.958 127.3 -999 242 7.1
2010-11-25 07:13:59 51°13.662 2°55.958 127.5 -999 97 7.1
2010-11-25 07:14:04 51°13.662 2°55.958 127.6 -999 299 7.1
2010-11-25 07:14:10 51°13.662 2°55.958 127.8 0.1 7 7.1
2010-11-25 07:14:14 51°13.662 2°55.958 127.8 -999 354 7.1
2010-11-25 07:14:19 51°13.662 2°55.958 127.8 0.1 27 7.1
2010-11-25 07:14:24 51°13.662 2°55.958 128 -999 176 7.1
2010-11-25 07:14:29 51°13.662 2°55.958 128 -999 350 7.2
2010-11-25 07:14:35 51°13.662 2°55.958 128.1 -999 342 7.2
2010-11-25 07:14:39 51°13.662 2°55.958 128.2 -999 103 7.2
2010-11-25 07:14:44 51°13.662 2°55.958 128.2 -999 90 7.1
2010-11-25 07:14:50 51°13.662 2°55.958 128.2 -999 248 7.2
2010-11-25 07:14:55 51°13.662 2°55.958 128.4 -999 290 7.2
2010-11-25 07:14:59 51°13.662 2°55.958 128.4 -999 175 7.1
2010-11-25 07:15:04 51°13.662 2°55.958 128.4 -999 83 7.1
2010-11-25 07:15:09 51°13.662 2°55.958 128.4 -999 289 7.2
2010-11-25 07:15:14 51°13.662 2°55.959 128.4 -999 1 7.1
2010-11-25 07:15:19 51°13.662 2°55.959 128.4 -999 188 7.1
2010-11-25 07:15:24 51°13.662 2°55.959 128.3 -999 135 7.2
2010-11-25 07:15:29 51°13.662 2°55.959 128.3 -999 334 7.1
2010-11-25 07:15:35 51°13.662 2°55.959 128.3 -999 193 7.1
2010-11-25 07:15:39 51°13.662 2°55.959 128.2 -999 356 7.1
2010-11-25 07:15:44 51°13.663 2°55.959 128.1 -999 316 7.1
2010-11-25 07:15:49 51°13.663 2°55.959 128 -999 338 7.1
2010-11-25 07:15:55 51°13.663 2°55.959 128 -999 14 7.1
2010-11-25 07:15:59 51°13.663 2°55.959 128 -999 47 7.1
2010-11-25 07:16:03 51°13.663 2°55.959 128 -999 322 7.1
2010-11-25 07:16:09 51°13.663 2°55.959 127.9 -999 339 7.1
2010-11-25 07:16:15 51°13.662 2°55.959 127.9 -999 169 7.1
2010-11-25 07:16:19 51°13.663 2°55.959 127.9 -999 345 7.1
2010-11-25 07:16:24 51°13.663 2°55.959 127.9 -999 270 7.1
2010-11-25 07:16:29 51°13.663 2°55.958 127.9 0.1 294 7.1
2010-11-25 07:16:35 51°13.663 2°55.959 127.9 -999 325 7.1
2010-11-25 07:16:39 51°13.662 2°55.959 127.9 -999 317 7.1
2010-11-25 07:16:44 51°13.662 2°55.959 127.8 -999 280 7.1
2010-11-25 07:16:50 51°13.662 2°55.959 127.7 -999 292 7.1
2010-11-25 07:16:54 51°13.662 2°55.959 127.6 -999 303 7.1
2010-11-25 07:16:59 51°13.662 2°55.959 127.4 -999 232 7.1
2010-11-25 07:17:04 51°13.662 2°55.959 127.3 -999 111 7.1
2010-11-25 07:17:09 51°13.663 2°55.96 127.2 -999 99 7.1
2010-11-25 07:17:15 51°13.664 2°55.96 127.2 -999 81 7.1
2010-11-25 07:17:19 51°13.664 2°55.96 127.2 -999 9 7.1
2010-11-25 07:17:24 51°13.663 2°55.96 127.2 -999 150 7.1
2010-11-25 07:17:29 51°13.663 2°55.96 127.1 -999 98 7.1
2010-11-25 07:17:35 51°13.662 2°55.959 127.1 -999 15 7.1
2010-11-25 07:17:39 51°13.662 2°55.959 127.2 -999 25 7.1
2010-11-25 07:17:44 51°13.662 2°55.959 127.2 -999 71 7.1
2010-11-25 07:17:49 51°13.662 2°55.96 127.3 -999 241 7.1
2010-11-25 07:17:55 51°13.663 2°55.96 127.5 -999 30 7.1
2010-11-25 07:17:59 51°13.663 2°55.96 127.5 0.1 197 7.1
2010-11-25 07:18:04 51°13.663 2°55.96 127.5 -999 59 7.1
2010-11-25 07:18:10 51°13.663 2°55.96 127.6 -999 202 7.1
2010-11-25 07:18:14 51°13.663 2°55.96 127.6 -999 7 7.1
2010-11-25 07:18:19 51°13.663 2°55.96 127.6 -999 223 7.1
2010-11-25 07:18:24 51°13.663 2°55.96 127.6 -999 19 7.2
2010-11-25 07:18:30 51°13.663 2°55.959 127.6 -999 244 5.5
2010-11-25 07:18:34 51°13.663 2°55.96 127.6 -999 96 7.1
2010-11-25 07:18:39 51°13.663 2°55.96 127.6 -999 185 7.1
2010-11-25 07:18:44 51°13.664 2°55.96 127.6 -999 41 7.1
2010-11-25 07:18:50 51°13.663 2°55.96 127.6 -999 205 7.1
2010-11-25 07:18:55 51°13.663 2°55.96 127.7 -999 347 7.1
2010-11-25 07:18:59 51°13.663 2°55.96 127.7 -999 56 7.1
2010-11-25 07:19:03 51°13.663 2°55.96 127.8 -999 119 7.1
2010-11-25 07:19:09 51°13.663 2°55.96 127.8 -999 75 7.1
2010-11-25 07:19:14 51°13.663 2°55.96 127.8 -999 79 7.1
2010-11-25 07:19:19 51°13.663 2°55.96 127.9 -999 34 7.1
2010-11-25 07:19:24 51°13.663 2°55.96 128 -999 60 7.1
2010-11-25 07:19:29 51°13.663 2°55.96 128.1 -999 9 7.1
2010-11-25 07:19:35 51°13.663 2°55.96 128.3 -999 101 7.1
2010-11-25 07:19:39 51°13.663 2°55.96 128.5 -999 64 7.1
2010-11-25 07:19:44 51°13.663 2°55.96 128.6 -999 5 7.2
2010-11-25 07:19:50 51°13.663 2°55.96 128.6 -999 91 7.2
2010-11-25 07:19:54 51°13.663 2°55.96 128.6 -999 117 7.1
2010-11-25 07:19:59 51°13.663 2°55.96 128.6 -999 74 7.1
2010-11-25 07:20:04 51°13.663 2°55.96 128.6 -999 77 7.1
2010-11-25 07:20:09 51°13.663 2°55.96 128.7 -999 67 7.1
2010-11-25 07:20:14 51°13.663 2°55.961 128.6 -999 98 7
2010-11-25 07:20:19 51°13.664 2°55.961 128.6 -999 67 7.1
2010-11-25 07:20:24 51°13.664 2°55.961 128.4 -999 79 7.1
2010-11-25 07:20:29 51°13.665 2°55.961 128.4 -999 106 7
2010-11-25 07:20:35 51°13.664 2°55.961 128.3 -999 134 7
2010-11-25 07:20:39 51°13.664 2°55.961 128.2 -999 53 7.1
2010-11-25 07:20:43 51°13.663 2°55.961 128.1 -999 252 7
2010-11-25 07:20:49 51°13.661 2°55.962 128.1 -999 314 7
2010-11-25 07:20:54 51°13.66 2°55.961 128.1 -999 292 7
2010-11-25 07:20:59 51°13.66 2°55.961 128.1 0.1 44 7
2010-11-25 07:21:04 51°13.66 2°55.961 128.1 -999 113 7.1
2010-11-25 07:21:09 51°13.66 2°55.961 127.8 -999 115 7
2010-11-25 07:21:15 51°13.66 2°55.961 126.9 0.1 115 7
2010-11-25 07:21:19 51°13.66 2°55.961 125.7 0.1 102 7
2010-11-25 07:21:24 51°13.66 2°55.962 124.5 0.1 101 7
2010-11-25 07:21:30 51°13.661 2°55.962 122.8 -999 204 7
2010-11-25 07:21:34 51°13.662 2°55.962 121.7 -999 162 7
2010-11-25 07:21:39 51°13.662 2°55.962 120.8 -999 216 7
2010-11-25 07:21:44 51°13.662 2°55.962 120.2 0.1 179 7
2010-11-25 07:21:49 51°13.662 2°55.961 119.2 -999 225 7
2010-11-25 07:21:54 51°13.661 2°55.961 118.3 -999 240 7
2010-11-25 07:21:59 51°13.661 2°55.961 117.2 0.1 195 7
2010-11-25 07:22:04 51°13.661 2°55.961 116.2 -999 205 7
2010-11-25 07:22:09 51°13.661 2°55.961 115.3 0.1 216 7
2010-11-25 07:22:15 51°13.66 2°55.961 114.5 0.1 195 7
2010-11-25 07:22:19 51°13.66 2°55.96 113.3 0.1 195 7
2010-11-25 07:22:24 51°13.66 2°55.96 112.5 0.1 186 7
2010-11-25 07:22:30 51°13.66 2°55.96 111.6 0.1 210 7
2010-11-25 07:22:34 51°13.659 2°55.96 110.7 0.1 193 7
2010-11-25 07:22:39 51°13.659 2°55.96 109.8 -999 210 7
2010-11-25 07:22:44 51°13.659 2°55.96 109 -999 218 7
2010-11-25 07:22:50 51°13.66 2°55.96 108.3 0.1 297 7.1
2010-11-25 07:22:54 51°13.661 2°55.96 108.1 0.3 304 7
2010-11-25 07:22:59 51°13.662 2°55.959 108.1 0.5 304 7.1
2010-11-25 07:23:04 51°13.662 2°55.958 108.1 0.7 304 7.1
2010-11-25 07:23:09 51°13.662 2°55.955 108.1 1.2 303 7.1
2010-11-25 07:23:14 51°13.663 2°55.952 108.1 1.6 299 7.1
2010-11-25 07:23:19 51°13.664 2°55.948 107.7 1.9 298 7.3
2010-11-25 07:23:24 51°13.665 2°55.944 107.5 2.4 295 7.3
2010-11-25 07:23:30 51°13.667 2°55.937 107 2.8 294 -999
2010-11-25 07:23:35 51°13.669 2°55.931 106.4 3.1 293 -999
2010-11-25 07:23:41 51°13.671 2°55.923 105.6 3.4 291 -999
2010-11-25 07:23:47 51°13.673 2°55.914 105.1 3.6 290 -999
2010-11-25 07:23:53 51°13.676 2°55.904 104.7 3.8 289 -999
2010-11-25 07:23:58 51°13.677 2°55.896 104.4 4 290 -999
2010-11-25 07:24:03 51°13.679 2°55.887 104.2 4.1 289 -999
2010-11-25 07:24:08 51°13.681 2°55.878 104.1 4.2 289 -999
2010-11-25 07:24:13 51°13.683 2°55.869 104.1 4.3 288 -999
2010-11-25 07:24:18 51°13.685 2°55.86 103.8 4.3 290 -999
2010-11-25 07:24:23 51°13.687 2°55.851 103.2 4.4 289 -999
2010-11-25 07:24:28 51°13.689 2°55.842 102.4 4.3 289 -999
2010-11-25 07:24:33 51°13.691 2°55.834 101.4 4.2 288 -999
2010-11-25 07:24:38 51°13.692 2°55.825 100.2 4.1 287 -999
2010-11-25 07:24:43 51°13.694 2°55.817 99.1 4.1 286 -999
2010-11-25 07:24:48 51°13.695 2°55.808 98 3.9 286 -999
2010-11-25 07:24:53 51°13.697 2°55.8 96.2 3.9 285 -999
2010-11-25 07:24:58 51°13.698 2°55.792 94.7 3.7 285 11.3
2010-11-25 07:25:03 51°13.699 2°55.785 93.2 3.6 283 11.5
2010-11-25 07:25:07 51°13.7 2°55.779 91.7 3.4 283 11.8
2010-11-25 07:25:13 51°13.701 2°55.771 89.8 3.3 282 -999
2010-11-25 07:25:17 51°13.702 2°55.765 87.7 3.1 281 12.7
2010-11-25 07:25:22 51°13.703 2°55.759 85.6 3 280 13
2010-11-25 07:25:27 51°13.704 2°55.753 83.5 2.8 279 13
2010-11-25 07:25:32 51°13.704 2°55.748 81.3 2.5 279 13
2010-11-25 07:25:37 51°13.705 2°55.743 79.4 2 279 12.7
2010-11-25 07:25:42 51°13.705 2°55.74 76.4 1.5 284 12.2
2010-11-25 07:25:47 51°13.706 2°55.738 72.7 1.1 290 12.3
2010-11-25 07:25:51 51°13.706 2°55.737 67.3 0.8 305 12.4
2010-11-25 07:25:56 51°13.707 2°55.736 63.2 0.7 311 12.5
2010-11-25 07:26:01 51°13.708 2°55.734 57 0.8 311 12.4
2010-11-25 07:26:06 51°13.708 2°55.733 53.9 0.8 299 12.3
2010-11-25 07:26:11 51°13.709 2°55.73 50.4 1 280 12
2010-11-25 07:26:15 51°13.708 2°55.728 48.3 1.2 265 11.9
2010-11-25 07:26:20 51°13.708 2°55.725 45.8 1.5 252 12.1
2010-11-25 07:26:25 51°13.707 2°55.722 43.4 1.6 248 12.3
2010-11-25 07:26:30 51°13.706 2°55.719 40.9 1.4 248 13
2010-11-25 07:26:35 51°13.706 2°55.716 39.1 1.3 253 13.7
2010-11-25 07:26:40 51°13.706 2°55.715 37 0.6 280 -999
2010-11-25 07:26:45 51°13.707 2°55.714 33.4 0.8 341 4.8
2010-11-25 07:26:50 51°13.709 2°55.714 27.7 1.3 358 12.1
2010-11-25 07:26:55 51°13.711 2°55.714 22.2 1.7 -999 11.7
2010-11-25 07:26:59 51°13.714 2°55.714 14.8 2.2 359 11
2010-11-25 07:27:04 51°13.718 2°55.713 7.2 2.6 357 11
2010-11-25 07:27:09 51°13.722 2°55.712 359.3 3.1 350 11
2010-11-25 07:27:14 51°13.727 2°55.71 351.9 3.5 346 11
2010-11-25 07:27:19 51°13.732 2°55.708 346.2 3.9 344 11.4
2010-11-25 07:27:24 51°13.737 2°55.704 342.1 4.4 340 11.4
2010-11-25 07:27:29 51°13.744 2°55.7 339.3 5.2 339 11.4
2010-11-25 07:27:34 51°13.751 2°55.695 337.5 5.4 336 11.2
2010-11-25 07:27:39 51°13.758 2°55.69 336.4 5.8 336 11.3
2010-11-25 07:27:44 51°13.766 2°55.684 335.8 6.3 334 10.9
2010-11-25 07:27:49 51°13.775 2°55.677 334.8 6.7 334 10.8
2010-11-25 07:27:55 51°13.785 2°55.669 334.5 6.9 333 10.8
2010-11-25 07:27:59 51°13.792 2°55.663 334.3 7.1 334 10.8
2010-11-25 07:28:04 51°13.801 2°55.656 334.7 7.3 334 10.8
2010-11-25 07:28:10 51°13.813 2°55.647 335.3 7.5 335 -999
2010-11-25 07:28:15 51°13.823 2°55.64 335.7 7.6 335 10.9
2010-11-25 07:28:20 51°13.833 2°55.634 335.8 7.7 335 11.1
2010-11-25 07:28:25 51°13.843 2°55.626 335.5 7.9 335 11.1
2010-11-25 07:28:30 51°13.854 2°55.619 335.6 8.1 336 11.2
2010-11-25 07:28:35 51°13.864 2°55.611 336.1 8.1 337 11.2
2010-11-25 07:28:39 51°13.873 2°55.606 336.6 8.1 337 11
2010-11-25 07:28:44 51°13.883 2°55.599 336.9 8.2 338 11.1
2010-11-25 07:28:49 51°13.894 2°55.592 337.1 8.2 338 11.2
2010-11-25 07:28:54 51°13.905 2°55.584 337.1 8.2 338 11.2
2010-11-25 07:28:59 51°13.915 2°55.578 336.9 8.2 338 11.2
2010-11-25 07:29:04 51°13.926 2°55.571 336.9 8.1 338 10.9
2010-11-25 07:29:09 51°13.935 2°55.564 336.7 8 337 11.1
2010-11-25 07:29:14 51°13.945 2°55.557 336.2 7.9 337 11.1
2010-11-25 07:29:19 51°13.955 2°55.551 336 7.8 338 11.1
2010-11-25 07:29:24 51°13.965 2°55.544 336.6 7.7 338 11.1
2010-11-25 07:29:29 51°13.975 2°55.538 336.9 7.7 338 11.1
2010-11-25 07:29:34 51°13.984 2°55.531 335.9 7.6 336 11
2010-11-25 07:29:39 51°13.993 2°55.524 335.4 7.6 337 10.9
2010-11-25 07:29:44 51°14.003 2°55.517 335.5 7.5 337 10.9
2010-11-25 07:29:49 51°14.012 2°55.51 336 7.4 337 10.6
2010-11-25 07:29:55 51°14.024 2°55.503 336.3 7.4 337 10.4
2010-11-25 07:29:59 51°14.032 2°55.498 336.3 7.3 337 9.6
2010-11-25 07:30:04 51°14.041 2°55.491 336 7.4 337 10
2010-11-25 07:30:10 51°14.052 2°55.484 336 7.3 337 10.7
2010-11-25 07:30:15 51°14.062 2°55.478 336.2 7.3 337 -999
2010-11-25 07:30:20 51°14.071 2°55.471 336.1 7.2 336 10.8
2010-11-25 07:30:25 51°14.081 2°55.465 335.7 7.3 337 10.9
2010-11-25 07:30:30 51°14.09 2°55.458 335.8 7.3 336 -999
2010-11-25 07:30:35 51°14.1 2°55.452 336 7.3 336 -999
2010-11-25 07:30:41 51°14.111 2°55.445 335.1 7.3 335 -999
2010-11-25 07:30:47 51°14.122 2°55.437 334 7.2 334 -999
2010-11-25 07:30:52 51°14.13 2°55.429 333.5 7.2 334 -999
2010-11-25 07:30:58 51°14.141 2°55.422 333.8 7.2 336 10.7
2010-11-25 07:31:03 51°14.151 2°55.415 334.6 7.2 335 10.4
2010-11-25 07:31:07 51°14.158 2°55.41 335.4 7.2 336 -999
2010-11-25 07:31:13 51°14.169 2°55.402 335.4 7.2 335 10.7
2010-11-25 07:31:18 51°14.178 2°55.395 334.7 7.3 335 10.9
2010-11-25 07:31:23 51°14.187 2°55.387 334.6 7.6 335 10.6
2010-11-25 07:31:28 51°14.197 2°55.38 334.8 8 336 -999
2010-11-25 07:31:33 51°14.208 2°55.372 335 8.3 335 9.8
2010-11-25 07:31:38 51°14.219 2°55.364 335.2 8.6 334 -999
2010-11-25 07:31:43 51°14.229 2°55.355 335.2 8.9 334 10.2
2010-11-25 07:31:47 51°14.239 2°55.348 334.6 9.2 333 10
2010-11-25 07:31:52 51°14.251 2°55.339 333.6 9.5 333 9.9
2010-11-25 07:31:57 51°14.263 2°55.329 332.8 9.7 333 9.4
2010-11-25 07:32:02 51°14.275 2°55.319 333.2 9.8 333 9.9
2010-11-25 07:32:07 51°14.287 2°55.308 333.1 10 331 10.4
2010-11-25 07:32:12 51°14.299 2°55.297 330.8 10.2 329 10
2010-11-25 07:32:16 51°14.309 2°55.287 328.7 10.4 329 10.5
2010-11-25 07:32:22 51°14.324 2°55.272 327.6 10.7 327 10.4
2010-11-25 07:32:27 51°14.336 2°55.257 325.8 10.9 325 10.4
2010-11-25 07:32:32 51°14.349 2°55.243 324.9 11.2 325 8.8
2010-11-25 07:32:37 51°14.362 2°55.228 324.4 11.4 323 10.2
2010-11-25 07:32:42 51°14.374 2°55.212 322.8 11.7 322 10.2
2010-11-25 07:32:47 51°14.387 2°55.196 321.8 11.8 323 -999
2010-11-25 07:32:52 51°14.4 2°55.179 322.5 12.1 323 -999
2010-11-25 07:32:58 51°14.416 2°55.16 322.9 12.2 324 -999
2010-11-25 07:33:03 51°14.43 2°55.145 324.4 12.4 326 -999
2010-11-25 07:33:08 51°14.444 2°55.128 324.9 12.4 323 -999
2010-11-25 07:33:13 51°14.457 2°55.112 324.1 12.3 322 10.4
2010-11-25 07:33:18 51°14.469 2°55.094 322.8 12.4 321 10.3
2010-11-25 07:33:23 51°14.483 2°55.077 321.6 12.5 322 10
2010-11-25 07:33:27 51°14.494 2°55.064 321.3 12.5 323 10.4
2010-11-25 07:33:32 51°14.508 2°55.048 322.1 12.6 325 10.7
2010-11-25 07:33:37 51°14.522 2°55.032 323.9 12.8 326 10.9
2010-11-25 07:33:42 51°14.537 2°55.016 326.2 12.8 326 10.4
2010-11-25 07:33:47 51°14.551 2°54.999 326.7 12.9 323 10.9
2010-11-25 07:33:51 51°14.563 2°54.985 325.7 12.9 323 10.5
2010-11-25 07:33:56 51°14.577 2°54.967 325.2 12.9 323 10.7
2010-11-25 07:34:01 51°14.592 2°54.951 326.5 13 325 10.6
2010-11-25 07:34:06 51°14.607 2°54.933 328.2 13.3 323 10.8
2010-11-25 07:34:11 51°14.621 2°54.915 328.1 13.3 320 11.2
2010-11-25 07:34:15 51°14.632 2°54.9 326.8 13.2 321 10.7
2010-11-25 07:34:20 51°14.647 2°54.883 327.9 13.2 324 10.7
2010-11-25 07:34:25 51°14.661 2°54.866 329.7 13.1 324 10.8
2010-11-25 07:34:31 51°14.679 2°54.846 330.3 13.2 324 11
2010-11-25 07:34:35 51°14.691 2°54.832 330.4 13.3 324 10.7
2010-11-25 07:34:40 51°14.706 2°54.816 330.4 13.3 325 10.8
2010-11-25 07:34:45 51°14.721 2°54.799 330.9 13.2 325 11.4
2010-11-25 07:34:50 51°14.736 2°54.782 331 13.2 324 10.6
2010-11-25 07:34:55 51°14.751 2°54.765 329.9 13.1 324 11.2
2010-11-25 07:34:59 51°14.763 2°54.752 329.6 13.1 324 11.2
2010-11-25 07:35:04 51°14.778 2°54.735 330.5 13.1 325 11.2
2010-11-25 07:35:09 51°14.793 2°54.719 330.9 13.1 326 11.3
2010-11-25 07:35:15 51°14.811 2°54.701 332.5 13.1 328 10.8
2010-11-25 07:35:19 51°14.824 2°54.689 333.3 13 328 11
2010-11-25 07:35:24 51°14.84 2°54.675 333.8 13 330 11.3
2010-11-25 07:35:29 51°14.856 2°54.662 335.7 12.9 332 10.7
2010-11-25 07:35:34 51°14.872 2°54.648 337.6 12.9 333 11
2010-11-25 07:35:39 51°14.888 2°54.635 337.8 12.9 333 11.3
2010-11-25 07:35:44 51°14.903 2°54.622 337.1 12.9 331 11.4
2010-11-25 07:35:49 51°14.919 2°54.608 336.7 12.8 332 11.2
2010-11-25 07:35:55 51°14.938 2°54.592 336.5 12.9 332 10.5
2010-11-25 07:35:59 51°14.95 2°54.581 335.7 12.9 331 9.6
2010-11-25 07:36:04 51°14.966 2°54.567 335.4 12.7 331 9.6
2010-11-25 07:36:09 51°14.981 2°54.554 335.7 12.6 331 9.1
2010-11-25 07:36:14 51°14.997 2°54.54 336.1 12.4 332 8.8
2010-11-25 07:36:19 51°15.012 2°54.527 336 12.5 331 9.1
2010-11-25 07:36:24 51°15.027 2°54.514 335.9 12.6 331 8.3
2010-11-25 07:36:29 51°15.042 2°54.501 335.8 12.3 331 8.9
2010-11-25 07:36:34 51°15.057 2°54.488 336.1 12.4 332 9.5
2010-11-25 07:36:39 51°15.072 2°54.473 335.9 12.5 331 8.1
2010-11-25 07:36:44 51°15.087 2°54.461 335.8 12.4 332 8.2
2010-11-25 07:36:49 51°15.101 2°54.447 335.4 12.3 330 9.3
2010-11-25 07:36:54 51°15.117 2°54.434 335.5 12.4 331 8.6
2010-11-25 07:36:59 51°15.131 2°54.42 335.3 12.4 330 8.2
2010-11-25 07:37:04 51°15.146 2°54.407 335.6 12.3 332 8
2010-11-25 07:37:10 51°15.164 2°54.391 336.2 12.4 331 8.1
2010-11-25 07:37:14 51°15.176 2°54.382 336.7 12.2 334 9.1
2010-11-25 07:37:19 51°15.192 2°54.37 337.5 12.3 333 8
2010-11-25 07:37:24 51°15.207 2°54.359 337.6 12.2 333 8.6
2010-11-25 07:37:29 51°15.222 2°54.345 338.1 12.5 333 8.4
2010-11-25 07:37:34 51°15.237 2°54.333 337.6 12.7 333 8.9
2010-11-25 07:37:39 51°15.252 2°54.321 337.8 12.6 334 8.2
2010-11-25 07:37:44 51°15.267 2°54.308 337.8 12.5 334 8.3
2010-11-25 07:37:49 51°15.283 2°54.295 337.9 12.5 332 8.6
2010-11-25 07:37:55 51°15.301 2°54.28 337.6 12.6 333 8.4
2010-11-25 07:37:59 51°15.314 2°54.27 338.2 12.6 333 8.4
2010-11-25 07:38:04 51°15.33 2°54.258 338.5 12.6 333 8.7
2010-11-25 07:38:10 51°15.349 2°54.243 339.1 12.7 334 8.2
2010-11-25 07:38:14 51°15.362 2°54.233 338.8 12.9 334 8.3
2010-11-25 07:38:19 51°15.378 2°54.222 339.6 12.9 335 9
2010-11-25 07:38:24 51°15.394 2°54.209 338.8 12.8 333 8.8
2010-11-25 07:38:29 51°15.41 2°54.197 338.8 12.8 334 9
2010-11-25 07:38:34 51°15.426 2°54.185 339.3 12.8 335 9.1
2010-11-25 07:38:39 51°15.442 2°54.172 338.7 12.8 333 8.5
2010-11-25 07:38:44 51°15.458 2°54.159 338.3 12.7 333 8.7
2010-11-25 07:38:49 51°15.474 2°54.147 338.9 12.8 334 9.1
2010-11-25 07:38:54 51°15.489 2°54.133 338.3 12.7 333 9.2
2010-11-25 07:38:59 51°15.504 2°54.12 338.2 12.5 333 9.5
2010-11-25 07:39:04 51°15.519 2°54.108 338.1 12.6 333 9
2010-11-25 07:39:09 51°15.535 2°54.095 338.5 12.6 333 9.6
2010-11-25 07:39:15 51°15.553 2°54.08 338.3 12.4 332 8.9
2010-11-25 07:39:19 51°15.566 2°54.069 337.4 12.6 330 9.9
2010-11-25 07:39:24 51°15.581 2°54.053 335.1 12.9 327 9.5
2010-11-25 07:39:29 51°15.596 2°54.038 333.2 12.9 326 9.5
2010-11-25 07:39:34 51°15.61 2°54.02 330.2 13 323 9.4
2010-11-25 07:39:39 51°15.624 2°54.003 327 12.8 321 9.9
2010-11-25 07:39:44 51°15.637 2°53.983 324.5 13 317 10.1
2010-11-25 07:39:49 51°15.65 2°53.962 320.6 13.1 314 9.5
2010-11-25 07:39:55 51°15.664 2°53.937 319 13.2 313 9.7
2010-11-25 07:39:59 51°15.674 2°53.919 316.8 13.2 311 9.9
2010-11-25 07:40:04 51°15.685 2°53.897 315.6 13.2 311 9.6
2010-11-25 07:40:09 51°15.697 2°53.875 315.7 13.1 312 10.4
2010-11-25 07:40:14 51°15.71 2°53.853 316 13.2 312 10.5
2010-11-25 07:40:19 51°15.722 2°53.833 317.5 13.2 314 9.8
2010-11-25 07:40:24 51°15.735 2°53.812 319.3 13.1 316 10.7
2010-11-25 07:40:29 51°15.749 2°53.792 320.8 13.2 317 10.7
2010-11-25 07:40:34 51°15.762 2°53.772 321.2 13.2 316 10.9
2010-11-25 07:40:39 51°15.775 2°53.752 321.3 13.2 317 10.3
2010-11-25 07:40:44 51°15.789 2°53.732 321.2 13.2 316 10.9
2010-11-25 07:40:50 51°15.806 2°53.709 322.4 13.2 318 10.4
2010-11-25 07:40:54 51°15.818 2°53.693 323.2 13.2 317 10.2
2010-11-25 07:40:59 51°15.831 2°53.674 323.1 13.5 318 11.1
2010-11-25 07:41:04 51°15.845 2°53.653 322.2 13.4 315 10.5
2010-11-25 07:41:09 51°15.858 2°53.632 320.1 13.3 313 10.8
2010-11-25 07:41:14 51°15.87 2°53.609 317.3 13.4 310 10.3
2010-11-25 07:41:19 51°15.881 2°53.585 315.1 13.6 309 10.1
2010-11-25 07:41:24 51°15.893 2°53.562 313.3 13.5 308 10.6
2010-11-25 07:41:30 51°15.906 2°53.532 311.8 13.6 305 10.1
2010-11-25 07:41:35 51°15.916 2°53.507 309.6 13.6 303 10.4
2010-11-25 07:41:39 51°15.924 2°53.486 307 13.7 301 11.1
2010-11-25 07:41:44 51°15.933 2°53.46 305.8 13.5 301 10.8
2010-11-25 07:41:49 51°15.944 2°53.437 307.4 13.2 306 10.2
2010-11-25 07:41:54 51°15.955 2°53.414 311.5 13.2 309 10.8
2010-11-25 07:41:59 51°15.968 2°53.393 315.9 13.1 313 11
2010-11-25 07:42:04 51°15.98 2°53.372 318 13.2 313 10.8
2010-11-25 07:42:09 51°15.993 2°53.352 319.8 13.1 318 11.1
2010-11-25 07:42:14 51°16.008 2°53.334 323.6 12.9 320 10.2
2010-11-25 07:42:19 51°16.022 2°53.319 328.9 12.4 325 11.4
2010-11-25 07:42:24 51°16.036 2°53.301 328.6 12.8 320 11.1
2010-11-25 07:42:29 51°16.049 2°53.282 326.2 12.7 319 10.8
2010-11-25 07:42:34 51°16.063 2°53.265 326.8 12.6 322 11.4
2010-11-25 07:42:39 51°16.078 2°53.249 329.5 12.8 325 10.8
2010-11-25 07:42:44 51°16.092 2°53.234 331 12.8 326 11.3
2010-11-25 07:42:49 51°16.107 2°53.218 332.5 12.8 327 10.8
2010-11-25 07:42:54 51°16.122 2°53.202 332.7 12.9 327 11.2
2010-11-25 07:42:59 51°16.137 2°53.188 334 13 329 10.7
2010-11-25 07:43:04 51°16.152 2°53.172 334.4 13 328 10.9
2010-11-25 07:43:09 51°16.168 2°53.158 335.2 13 330 11.3
2010-11-25 07:43:14 51°16.183 2°53.143 335.6 13.1 328 11.6
2010-11-25 07:43:19 51°16.199 2°53.129 336 12.8 330 10.9
2010-11-25 07:43:24 51°16.214 2°53.114 336 12.9 329 11.1
2010-11-25 07:43:30 51°16.233 2°53.098 336.2 13 331 11.4
2010-11-25 07:43:35 51°16.249 2°53.083 336.6 12.9 330 10.9
2010-11-25 07:43:39 51°16.261 2°53.073 336.8 12.8 332 11.3
2010-11-25 07:43:44 51°16.277 2°53.058 336.1 12.9 329 11.7
2010-11-25 07:43:49 51°16.293 2°53.044 336.6 12.7 330 10.7
2010-11-25 07:43:54 51°16.308 2°53.03 336.1 12.5 330 11.5
2010-11-25 07:43:59 51°16.323 2°53.016 336.2 12.7 330 12
2010-11-25 07:44:04 51°16.338 2°53.003 336.7 12.5 331 11.5
2010-11-25 07:44:09 51°16.353 2°52.988 335.7 12.4 329 10.5
2010-11-25 07:44:14 51°16.368 2°52.975 335.3 12.4 331 11.4
2010-11-25 07:44:19 51°16.382 2°52.961 335.8 12.6 329 11.5
2010-11-25 07:44:24 51°16.397 2°52.947 335.3 12.4 331 10.6
2010-11-25 07:44:30 51°16.415 2°52.931 335.6 12.4 330 11.4
2010-11-25 07:44:35 51°16.43 2°52.919 336.9 12.4 333 11.2
2010-11-25 07:44:40 51°16.445 2°52.904 335.5 12.5 327 11.2
2010-11-25 07:44:44 51°16.457 2°52.893 334.1 12.6 330 11.6
2010-11-25 07:44:50 51°16.476 2°52.875 334.7 12.9 329 11.1
2010-11-25 07:44:55 51°16.491 2°52.862 334.9 12.8 331 10.8
2010-11-25 07:44:59 51°16.503 2°52.85 335.4 12.8 328 11
2010-11-25 07:45:04 51°16.519 2°52.836 334.6 12.9 331 10.8
2010-11-25 07:45:09 51°16.534 2°52.821 334.8 12.9 328 10.7
2010-11-25 07:45:14 51°16.55 2°52.808 335.4 12.9 333 10.9
2010-11-25 07:45:19 51°16.565 2°52.792 335.5 13.1 329 11
2010-11-25 07:45:24 51°16.581 2°52.78 335.4 12.6 333 11.2
2010-11-25 07:45:29 51°16.596 2°52.767 337.2 12.8 332 11.3
2010-11-25 07:45:34 51°16.612 2°52.755 338.3 12.7 336 11.1
2010-11-25 07:45:39 51°16.629 2°52.744 341.2 12.7 337 10.9
2010-11-25 07:45:44 51°16.645 2°52.732 341.2 12.9 335 10.5
2010-11-25 07:45:49 51°16.662 2°52.722 342 12.7 340 10.1
2010-11-25 07:45:54 51°16.678 2°52.712 343.4 12.8 339 10.1
2010-11-25 07:45:59 51°16.695 2°52.703 343.9 12.9 340 9.8
2010-11-25 07:46:04 51°16.711 2°52.694 345.1 12.5 341 10.1
2010-11-25 07:46:10 51°16.731 2°52.685 346.3 12.5 343 9.2
2010-11-25 07:46:14 51°16.744 2°52.677 346.3 12.4 342 9.1
2010-11-25 07:46:19 51°16.76 2°52.669 346.9 12.5 343 9.3
2010-11-25 07:46:24 51°16.777 2°52.661 346.6 12.4 342 9
2010-11-25 07:46:29 51°16.793 2°52.653 347.1 12.3 344 9
2010-11-25 07:46:35 51°16.813 2°52.643 347.4 12.5 342 9.3
2010-11-25 07:46:39 51°16.826 2°52.637 347 12.6 343 8.6
2010-11-25 07:46:44 51°16.843 2°52.628 346.7 12.5 342 8.6
2010-11-25 07:46:50 51°16.862 2°52.618 347 12.4 343 8.5
2010-11-25 07:46:54 51°16.876 2°52.611 346.8 12.5 342 8.8
2010-11-25 07:46:59 51°16.893 2°52.603 346.8 12.7 342 9.1
2010-11-25 07:47:04 51°16.909 2°52.594 346.4 12.6 342 9.3
2010-11-25 07:47:09 51°16.926 2°52.586 346.1 12.5 342 9.8
2010-11-25 07:47:14 51°16.942 2°52.577 346.7 12.4 342 9.5
2010-11-25 07:47:19 51°16.959 2°52.569 346.6 12.6 341 9.3
2010-11-25 07:47:24 51°16.976 2°52.56 346.7 12.8 341 9.1
2010-11-25 07:47:29 51°16.992 2°52.551 345.9 12.7 342 8.8
2010-11-25 07:47:35 51°17.012 2°52.541 346 12.6 342 8.8
2010-11-25 07:47:39 51°17.025 2°52.534 346.6 12.5 343 8.6
2010-11-25 07:47:44 51°17.042 2°52.525 346.6 12.6 342 9
2010-11-25 07:47:50 51°17.062 2°52.515 346.8 12.8 342 9
2010-11-25 07:47:55 51°17.079 2°52.506 346.1 12.7 341 8.9
2010-11-25 07:47:59 51°17.092 2°52.499 346 12.5 342 9.5
2010-11-25 07:48:04 51°17.108 2°52.491 346 12.3 343 9.8
2010-11-25 07:48:09 51°17.124 2°52.482 346.4 12.2 342 9
2010-11-25 07:48:15 51°17.144 2°52.472 346.2 12.3 342 9.8
2010-11-25 07:48:19 51°17.157 2°52.465 346.4 12.5 341 9.2
2010-11-25 07:48:24 51°17.173 2°52.456 346.2 12.1 341 9.4
2010-11-25 07:48:30 51°17.192 2°52.446 345.6 12.1 341 10
2010-11-25 07:48:34 51°17.205 2°52.439 346.3 12.3 341 9.2
2010-11-25 07:48:39 51°17.221 2°52.43 345.6 12.5 341 9.6
2010-11-25 07:48:44 51°17.238 2°52.421 345.6 12.5 341 9.5
2010-11-25 07:48:49 51°17.254 2°52.412 345.6 12.5 342 9.8
2010-11-25 07:48:55 51°17.274 2°52.402 346.3 12.4 342 9.2
2010-11-25 07:48:59 51°17.287 2°52.395 346.6 12.6 341 9.9
2010-11-25 07:49:04 51°17.304 2°52.386 346 12.7 341 9.6
2010-11-25 07:49:10 51°17.324 2°52.375 345.7 12.6 342 9.9
2010-11-25 07:49:14 51°17.337 2°52.367 345.6 12.5 341 9.2
2010-11-25 07:49:19 51°17.353 2°52.359 345.6 12.6 343 9.6
2010-11-25 07:49:24 51°17.37 2°52.352 347 12.4 344 9.1
2010-11-25 07:49:29 51°17.386 2°52.346 349.5 12.2 348 10.4
2010-11-25 07:49:34 51°17.403 2°52.341 352.2 12.3 349 9.7
2010-11-25 07:49:39 51°17.42 2°52.337 353.8 12.3 351 10.1
2010-11-25 07:49:44 51°17.437 2°52.333 355.4 12.3 353 10.4
2010-11-25 07:49:49 51°17.454 2°52.331 357.1 12.2 355 9.2
2010-11-25 07:49:55 51°17.473 2°52.328 357.9 11.9 354 9.4
2010-11-25 07:49:59 51°17.487 2°52.326 359.7 12 355 9.9
2010-11-25 07:50:03 51°17.5 2°52.324 -999 12.2 355 9.4
2010-11-25 07:50:09 51°17.521 2°52.322 0.7 12.3 356 9.4
2010-11-25 07:50:14 51°17.538 2°52.321 1.1 12.2 357 9
2010-11-25 07:50:19 51°17.554 2°52.32 1.9 12 358 9.2
2010-11-25 07:50:23 51°17.568 2°52.319 1.7 11.8 357 10.7
2010-11-25 07:50:30 51°17.59 2°52.319 2.3 11.5 2 -999
2010-11-25 07:50:35 51°17.606 2°52.318 2.8 11.5 357 10.8
2010-11-25 07:50:40 51°17.621 2°52.316 0.8 11.3 356 -999
2010-11-25 07:50:45 51°17.637 2°52.316 1.6 11.2 359 10.2
2010-11-25 07:50:50 51°17.652 2°52.313 1.7 11.5 354 9.4
2010-11-25 07:50:55 51°17.669 2°52.312 1.1 11.7 357 9
2010-11-25 07:51:00 51°17.685 2°52.31 1.6 11.6 356 9.1
2010-11-25 07:51:04 51°17.697 2°52.31 2 11.3 358 10.2
2010-11-25 07:51:09 51°17.713 2°52.309 2.6 11.6 357 10.2
2010-11-25 07:51:15 51°17.733 2°52.307 1.3 11.7 356 8.9
2010-11-25 07:51:19 51°17.746 2°52.306 1.7 11.4 356 10.1
2010-11-25 07:51:24 51°17.76 2°52.304 1.5 10.6 357 10.5
2010-11-25 07:51:29 51°17.774 2°52.303 1.7 9.9 356 9.5
2010-11-25 07:51:35 51°17.789 2°52.302 2.2 9 358 9.7
2010-11-25 07:51:39 51°17.799 2°52.301 2.7 8.7 356 9.6
2010-11-25 07:51:44 51°17.81 2°52.3 2.7 8 358 9.8
2010-11-25 07:51:50 51°17.822 2°52.298 2.5 7.6 356 9.7
2010-11-25 07:51:55 51°17.832 2°52.298 2.3 7.3 358 9.3
2010-11-25 07:51:59 51°17.839 2°52.297 2.6 6.9 358 8.9
2010-11-25 07:52:04 51°17.847 2°52.296 2.4 6 356 9.3
2010-11-25 07:52:09 51°17.855 2°52.295 2.6 5.6 353 9.7
2010-11-25 07:52:15 51°17.863 2°52.293 1.3 5.1 353 10.5
2010-11-25 07:52:19 51°17.868 2°52.292 0.4 4.8 350 10.7
2010-11-25 07:52:23 51°17.874 2°52.29 359.8 4.5 352 10.5
2010-11-25 07:52:29 51°17.881 2°52.288 359.9 4.4 347 10.6
2010-11-25 07:52:35 51°17.889 2°52.287 359 4.2 353 10.7
2010-11-25 07:52:39 51°17.893 2°52.285 359.1 4.3 347 10.5
2010-11-25 07:52:43 51°17.898 2°52.284 359.6 4.6 351 10.4
2010-11-25 07:52:49 51°17.907 2°52.281 359.3 5.1 348 10.4
2010-11-25 07:52:54 51°17.914 2°52.28 359.3 5.4 353 11
2010-11-25 07:52:59 51°17.923 2°52.278 359.4 5.8 349 10.4
2010-11-25 07:53:04 51°17.931 2°52.276 359.2 6.2 352 10.1
2010-11-25 07:53:09 51°17.94 2°52.274 358.9 6.5 351 10.7
2010-11-25 07:53:15 51°17.951 2°52.272 359.1 6.5 354 10.6
2010-11-25 07:53:19 51°17.959 2°52.27 359.8 6.8 351 10.2
2010-11-25 07:53:24 51°17.969 2°52.268 -999 7.1 353 10
2010-11-25 07:53:30 51°17.981 2°52.265 0.2 7.5 352 10
2010-11-25 07:53:34 51°17.989 2°52.264 359.8 7.2 356 10.4
2010-11-25 07:53:39 51°17.999 2°52.263 0.4 7.1 355 4.8
2010-11-25 07:53:44 51°18.009 2°52.262 1.1 7.1 355 11.3
2010-11-25 07:53:49 51°18.019 2°52.261 1.6 7.1 357 9.9
2010-11-25 07:53:54 51°18.028 2°52.259 0.5 7.2 353 10
2010-11-25 07:53:59 51°18.039 2°52.257 1 7.3 353 10.8
2010-11-25 07:54:03 51°18.047 2°52.256 0.1 7.3 355 11.4
2010-11-25 07:54:09 51°18.059 2°52.254 0.3 7.4 353 10.9
2010-11-25 07:54:14 51°18.069 2°52.252 1 7.5 355 11.3
2010-11-25 07:54:19 51°18.08 2°52.251 359.5 7.2 354 11.4
2010-11-25 07:54:24 51°18.09 2°52.25 359.9 7.4 356 11.1
2010-11-25 07:54:29 51°18.1 2°52.248 359.4 7.1 355 10.5
2010-11-25 07:54:35 51°18.112 2°52.246 0.1 7.4 354 10.6
2010-11-25 07:54:39 51°18.12 2°52.245 359.4 7.3 354 9.8
2010-11-25 07:54:43 51°18.127 2°52.244 359.8 6.9 355 10
2010-11-25 07:54:50 51°18.14 2°52.241 0.3 6.8 352 11
2010-11-25 07:54:54 51°18.148 2°52.24 0.1 6.9 354 11
2010-11-25 07:54:59 51°18.158 2°52.237 0.2 7.3 352 10.8
2010-11-25 07:55:03 51°18.166 2°52.236 0.5 7.5 354 10.9
2010-11-25 07:55:09 51°18.179 2°52.233 359.7 7.5 353 10.8
2010-11-25 07:55:14 51°18.189 2°52.232 0.9 7.4 353 11.3
2010-11-25 07:55:19 51°18.199 2°52.231 0.7 7.3 357 10.4
2010-11-25 07:55:24 51°18.209 2°52.229 0.7 7.1 352 10.2
2010-11-25 07:55:29 51°18.219 2°52.227 1.4 7 354 11.1
2010-11-25 07:55:35 51°18.23 2°52.226 0.5 6.9 356 11.4
2010-11-25 07:55:39 51°18.238 2°52.224 0.5 7 353 11.1
2010-11-25 07:55:43 51°18.245 2°52.222 359.7 7.1 352 10.9
2010-11-25 07:55:49 51°18.257 2°52.22 359.8 7 354 11
2010-11-25 07:55:55 51°18.268 2°52.218 359.7 6.8 353 10.5
2010-11-25 07:55:59 51°18.276 2°52.217 1.1 6.7 355 10.9
2010-11-25 07:56:03 51°18.283 2°52.216 2.3 6.7 356 10.6
2010-11-25 07:56:09 51°18.294 2°52.215 2.8 6.4 356 11.2
2010-11-25 07:56:14 51°18.303 2°52.214 4.3 6.3 357 11.2
2010-11-25 07:56:19 51°18.312 2°52.214 4.1 6.4 356 10.6
2010-11-25 07:56:23 51°18.318 2°52.214 4.7 6.1 358 11.2
2010-11-25 07:56:29 51°18.328 2°52.213 5.7 6.1 358 11.3
2010-11-25 07:56:34 51°18.337 2°52.213 5.6 6 359 10.9
2010-11-25 07:56:39 51°18.345 2°52.212 5.2 6.2 359 10.9
2010-11-25 07:56:44 51°18.353 2°52.213 5.7 5.9 2 10.4
2010-11-25 07:56:50 51°18.363 2°52.213 6.7 5.8 1 11.1
2010-11-25 07:56:55 51°18.371 2°52.212 6.4 5.9 -999 11.2
2010-11-25 07:56:59 51°18.377 2°52.213 5.9 5.7 1 10.1
2010-11-25 07:57:04 51°18.384 2°52.212 5.7 5.5 -999 10.4
2010-11-25 07:57:10 51°18.393 2°52.212 6.7 5.6 -999 11
2010-11-25 07:57:15 51°18.402 2°52.212 5.9 5.9 1 11.5
2010-11-25 07:57:19 51°18.408 2°52.212 5.2 5.9 1 10.1
2010-11-25 07:57:23 51°18.414 2°52.212 6.3 5.7 -999 10.3
2010-11-25 07:57:30 51°18.425 2°52.212 6.7 5.8 359 10.3
2010-11-25 07:57:34 51°18.432 2°52.213 6.5 5.6 1 10.7
2010-11-25 07:57:39 51°18.439 2°52.213 7.9 5.9 1 10.9
2010-11-25 07:57:43 51°18.446 2°52.213 6.1 6.1 359 10.9
2010-11-25 07:57:49 51°18.456 2°52.212 4.7 6.3 358 10.2
2010-11-25 07:57:55 51°18.466 2°52.212 5.2 6 -999 9.9
2010-11-25 07:57:59 51°18.472 2°52.212 6 5.8 358 10.7
2010-11-25 07:58:04 51°18.48 2°52.212 6.6 6 359 10.8
2010-11-25 07:58:09 51°18.489 2°52.21 5.2 6.3 356 11
2010-11-25 07:58:14 51°18.498 2°52.21 5.1 6.5 359 11.4
2010-11-25 07:58:19 51°18.508 2°52.209 4.8 6.7 356 11.3
2010-11-25 07:58:24 51°18.517 2°52.209 5.1 6.9 359 11.2
2010-11-25 07:58:29 51°18.527 2°52.209 5.3 6.9 359 11.8
2010-11-25 07:58:35 51°18.539 2°52.209 5.5 6.8 -999 12
2010-11-25 07:58:39 51°18.546 2°52.209 6 6.8 2 12.2
2010-11-25 07:58:44 51°18.556 2°52.209 5.7 6.6 -999 12.5
2010-11-25 07:58:49 51°18.565 2°52.208 4.4 6.6 358 12.2
2010-11-25 07:58:54 51°18.575 2°52.209 6.5 6.4 3 11.6
2010-11-25 07:58:59 51°18.584 2°52.209 5.2 6.4 358 12
2010-11-25 07:59:04 51°18.593 2°52.209 6.6 6.5 -999 11.5
2010-11-25 07:59:09 51°18.602 2°52.208 5.7 6.8 357 11.3
2010-11-25 07:59:15 51°18.614 2°52.208 5.2 6.8 -999 11.4
2010-11-25 07:59:19 51°18.621 2°52.208 4.9 6.8 358 11.6
2010-11-25 07:59:24 51°18.631 2°52.208 5.4 6.8 -999 10.9
2010-11-25 07:59:29 51°18.64 2°52.208 5.2 6.6 -999 10.7
2010-11-25 07:59:34 51°18.648 2°52.208 7 6.3 1 11.5
2010-11-25 07:59:39 51°18.658 2°52.207 5.5 6.6 357 11.4
2010-11-25 07:59:43 51°18.665 2°52.207 4.7 6.5 358 11.8
2010-11-25 07:59:49 51°18.676 2°52.206 5 6.7 358 12.4
2010-11-25 07:59:54 51°18.685 2°52.206 5.2 6.6 358 12.7
2010-11-25 07:59:59 51°18.694 2°52.206 5.5 6.7 359 12.1
2010-11-25 08:00:04 51°18.704 2°52.205 5.7 6.7 358 11.9
2010-11-25 08:00:09 51°18.714 2°52.204 5.3 6.9 358 12.2
2010-11-25 08:00:15 51°18.725 2°52.203 5.1 7 358 11.9
2010-11-25 08:00:19 51°18.733 2°52.203 5.1 7.1 358 12.1
2010-11-25 08:00:23 51°18.741 2°52.203 5.3 7.2 358 11.5
2010-11-25 08:00:29 51°18.753 2°52.202 5.7 7.1 357 11.3
2010-11-25 08:00:34 51°18.764 2°52.2 5.3 7 357 11.3
2010-11-25 08:00:39 51°18.773 2°52.2 5.6 6.9 357 11.9
2010-11-25 08:00:44 51°18.783 2°52.199 5.7 6.8 357 11.9
2010-11-25 08:00:49 51°18.792 2°52.199 6.1 6.5 357 12.1
2010-11-25 08:00:55 51°18.801 2°52.201 5.9 5.2 5 13.4
2010-11-25 08:00:59 51°18.807 2°52.201 5 5.2 1 5.2
2010-11-25 08:01:04 51°18.815 2°52.201 5.5 5.5 358 13.1
2010-11-25 08:01:09 51°18.823 2°52.2 5.7 5.7 358 12.9
2010-11-25 08:01:15 51°18.833 2°52.199 4.9 5.8 356 12.7
2010-11-25 08:01:19 51°18.84 2°52.199 4.4 5.8 356 12.6
2010-11-25 08:01:23 51°18.847 2°52.198 3.9 6 356 12.7
2010-11-25 08:01:29 51°18.858 2°52.197 4.2 6.3 356 12.7
2010-11-25 08:01:34 51°18.867 2°52.196 4.4 6.5 356 11.9
2010-11-25 08:01:39 51°18.875 2°52.195 4.6 6.4 357 12.8
2010-11-25 08:01:44 51°18.884 2°52.194 5.2 6.2 357 13.4
2010-11-25 08:01:49 51°18.893 2°52.194 5 6.3 356 13.2
2010-11-25 08:01:55 51°18.903 2°52.192 4.4 6.4 355 13.3
2010-11-25 08:01:59 51°18.91 2°52.192 4.3 6.3 358 13.7
2010-11-25 08:02:04 51°18.919 2°52.192 5.1 6.2 2 6
2010-11-25 08:02:09 51°18.926 2°52.192 5.9 5.7 2 -999
2010-11-25 08:02:15 51°18.936 2°52.191 6.6 5.8 357 14
2010-11-25 08:02:19 51°18.941 2°52.192 5.3 5.3 2 12.2
2010-11-25 08:02:24 51°18.948 2°52.192 5.8 5 1 12.9
2010-11-25 08:02:29 51°18.955 2°52.193 8.1 5.1 -999 12.2
2010-11-25 08:02:34 51°18.962 2°52.192 7 5.2 356 12.5
2010-11-25 08:02:39 51°18.97 2°52.192 6.7 5.4 359 12.5
2010-11-25 08:02:44 51°18.977 2°52.191 6.4 5.6 357 12.7
2010-11-25 08:02:49 51°18.985 2°52.191 6.2 5.6 358 13.6
2010-11-25 08:02:55 51°18.995 2°52.191 6.5 5.7 359 14.2
2010-11-25 08:02:59 51°19.001 2°52.19 5.7 5.8 359 13.1
2010-11-25 08:03:04 51°19.009 2°52.19 6.3 5.9 358 12.8
2010-11-25 08:03:09 51°19.017 2°52.189 5.8 6.1 356 12.9
2010-11-25 08:03:15 51°19.027 2°52.188 5.6 6.1 358 13.2
2010-11-25 08:03:19 51°19.034 2°52.187 5.2 6.2 355 13.5
2010-11-25 08:03:23 51°19.041 2°52.187 5.2 6.1 357 13.9
2010-11-25 08:03:29 51°19.051 2°52.186 5.2 6.3 356 13.5
2010-11-25 08:03:35 51°19.062 2°52.185 5.9 6.4 359 13.3
2010-11-25 08:03:39 51°19.069 2°52.185 5.7 6.4 358 13.8
2010-11-25 08:03:43 51°19.077 2°52.184 5.6 6.4 358 14.1
2010-11-25 08:03:50 51°19.09 2°52.184 6 6.6 357 13.8
2010-11-25 08:03:54 51°19.097 2°52.183 6.1 6.5 359 13.6
2010-11-25 08:03:59 51°19.106 2°52.183 6 6.5 -999 14.5
2010-11-25 08:04:04 51°19.115 2°52.184 6.6 6.3 2 13.4
2010-11-25 08:04:09 51°19.124 2°52.184 7.2 6.2 357 13
2010-11-25 08:04:15 51°19.133 2°52.183 6 5.9 357 12.9
2010-11-25 08:04:19 51°19.14 2°52.182 6 5.8 357 13.8
2010-11-25 08:04:24 51°19.148 2°52.182 6.2 6 357 14.3
2010-11-25 08:04:29 51°19.156 2°52.181 5.2 6.2 355 14.2
2010-11-25 08:04:35 51°19.167 2°52.179 4.3 6.3 355 13.8
2010-11-25 08:04:39 51°19.174 2°52.179 4.6 6.5 356 14.5
2010-11-25 08:04:43 51°19.182 2°52.178 4.5 6.5 356 14.7
2010-11-25 08:04:49 51°19.192 2°52.178 5 6.6 359 14.1
2010-11-25 08:04:55 51°19.203 2°52.176 5.6 6.6 357 13.9
2010-11-25 08:04:59 51°19.21 2°52.176 5.2 6.5 356 14.7
2010-11-25 08:05:03 51°19.218 2°52.175 4.8 6.7 357 14.5
2010-11-25 08:05:09 51°19.229 2°52.174 4.7 6.7 358 14.5
2010-11-25 08:05:14 51°19.238 2°52.173 4.8 6.9 357 15
2010-11-25 08:05:19 51°19.248 2°52.172 4.4 6.9 357 13.8
2010-11-25 08:05:24 51°19.257 2°52.171 4.8 6.6 355 14
2010-11-25 08:05:29 51°19.266 2°52.17 5.1 6.4 356 14.8
2010-11-25 08:05:35 51°19.277 2°52.169 5.2 6.3 357 15.5
2010-11-25 08:05:39 51°19.284 2°52.168 4.4 6.2 354 15.6
2010-11-25 08:05:44 51°19.293 2°52.167 4.5 6.2 354 14.9
2010-11-25 08:05:49 51°19.301 2°52.166 4.4 6.2 355 15.2
2010-11-25 08:05:55 51°19.312 2°52.164 4.5 6.3 356 14.6
2010-11-25 08:05:59 51°19.32 2°52.164 4.6 6.5 358 14.5
2010-11-25 08:06:03 51°19.327 2°52.163 5.1 6.5 356 14.1
2010-11-25 08:06:10 51°19.339 2°52.161 5.2 6.3 357 14.5
2010-11-25 08:06:14 51°19.346 2°52.16 5.2 6.4 355 14.7
2010-11-25 08:06:19 51°19.355 2°52.159 4.6 6.5 354 15.1
2010-11-25 08:06:24 51°19.364 2°52.158 4.6 6.2 355 15.8
2010-11-25 08:06:29 51°19.372 2°52.157 5.3 6 357 15.9
2010-11-25 08:06:35 51°19.383 2°52.156 5.3 6.1 356 15.1
2010-11-25 08:06:39 51°19.389 2°52.155 5.2 6.3 354 15.2
2010-11-25 08:06:44 51°19.398 2°52.153 4.8 6.4 353 14.7
2010-11-25 08:06:49 51°19.407 2°52.152 4.8 6.4 355 15
2010-11-25 08:06:54 51°19.416 2°52.151 4.7 6.5 354 15.3
2010-11-25 08:06:59 51°19.425 2°52.149 5 6.5 354 15.1
2010-11-25 08:07:04 51°19.435 2°52.148 5.5 6.6 355 15.4
2010-11-25 08:07:09 51°19.444 2°52.146 5.8 6.8 355 14.8
2010-11-25 08:07:15 51°19.455 2°52.145 5.7 6.7 355 14.7
2010-11-25 08:07:19 51°19.462 2°52.144 6 6.7 356 15.6
2010-11-25 08:07:24 51°19.472 2°52.143 5.4 6.6 356 15.4
2010-11-25 08:07:29 51°19.481 2°52.142 5.5 6.5 358 16.1
2010-11-25 08:07:35 51°19.491 2°52.142 5.2 6.2 1 16.6
2010-11-25 08:07:39 51°19.497 2°52.142 6.6 5.7 357 15.3
2010-11-25 08:07:43 51°19.503 2°52.141 7.6 5.8 356 15.1
2010-11-25 08:07:49 51°19.513 2°52.139 5.5 6 352 14.8
2010-11-25 08:07:55 51°19.523 2°52.137 4.2 6 354 14.7
2010-11-25 08:07:59 51°19.53 2°52.135 4.6 6.1 353 15.6
2010-11-25 08:08:03 51°19.537 2°52.134 5 6.1 354 15.3
2010-11-25 08:08:10 51°19.549 2°52.132 4.6 6 353 16
2010-11-25 08:08:14 51°19.555 2°52.131 5.1 6.1 353 15.1
2010-11-25 08:08:19 51°19.564 2°52.13 5.2 6 354 14.1
2010-11-25 08:08:24 51°19.572 2°52.129 5.9 5.9 355 15
2010-11-25 08:08:29 51°19.579 2°52.129 7.2 5.5 357 15.8
2010-11-25 08:08:35 51°19.589 2°52.127 6.4 5.7 351 15.6
2010-11-25 08:08:39 51°19.596 2°52.126 5.1 5.9 353 15.8
2010-11-25 08:08:44 51°19.604 2°52.124 4.3 5.9 353 16.2
2010-11-25 08:08:49 51°19.611 2°52.124 4.3 5.6 359 16.7
2010-11-25 08:08:55 51°19.619 2°52.124 5 4.8 2 -999
2010-11-25 08:09:00 51°19.625 2°52.122 7.8 4.3 355 16.1
2010-11-25 08:09:05 51°19.631 2°52.121 6.6 4.6 352 15.3
2010-11-25 08:09:10 51°19.638 2°52.119 4.2 5 349 15.5
2010-11-25 08:09:15 51°19.645 2°52.117 3.1 5.3 351 15.8
2010-11-25 08:09:19 51°19.651 2°52.115 3.1 5.4 351 15.3
2010-11-25 08:09:24 51°19.659 2°52.113 3.2 5.7 352 15
2010-11-25 08:09:29 51°19.667 2°52.112 3.8 5.8 354 14.9
2010-11-25 08:09:34 51°19.675 2°52.11 3.8 6 353 15.4
2010-11-25 08:09:39 51°19.683 2°52.108 4.2 6.1 353 14.7
2010-11-25 08:09:44 51°19.691 2°52.106 4 6.2 354 15.3
2010-11-25 08:09:49 51°19.7 2°52.104 4.3 6.2 351 15.7
2010-11-25 08:09:55 51°19.71 2°52.103 4.3 6.4 354 15.3
2010-11-25 08:09:59 51°19.717 2°52.103 4.7 6.2 358 14.8
2010-11-25 08:10:04 51°19.725 2°52.101 6.3 6.2 355 15
2010-11-25 08:10:09 51°19.734 2°52.1 6 6.1 355 15.9
2010-11-25 08:10:15 51°19.744 2°52.098 5.5 6.2 354 15.8
2010-11-25 08:10:19 51°19.751 2°52.098 5.5 6.4 355 15.2
2010-11-25 08:10:23 51°19.758 2°52.097 5.8 6.2 358 16
2010-11-25 08:10:29 51°19.768 2°52.096 6.4 6.3 359 15.6
2010-11-25 08:10:34 51°19.777 2°52.095 6.2 6.4 355 15.6
2010-11-25 08:10:39 51°19.786 2°52.094 6.1 6.2 356 16.5
2010-11-25 08:10:44 51°19.795 2°52.093 4.9 6.3 356 16.9
2010-11-25 08:10:49 51°19.803 2°52.092 4.3 6.1 357 16.5
2010-11-25 08:10:55 51°19.813 2°52.092 5.9 5.9 358 16.7
2010-11-25 08:10:59 51°19.819 2°52.091 6.6 5.7 358 16.2
2010-11-25 08:11:04 51°19.827 2°52.091 5.7 5.2 358 15.5
2010-11-25 08:11:09 51°19.833 2°52.09 7.3 4.7 358 15.7
2010-11-25 08:11:14 51°19.839 2°52.09 7.4 4.5 356 16.6
2010-11-25 08:11:19 51°19.846 2°52.09 9.2 4.5 359 16.5
2010-11-25 08:11:24 51°19.852 2°52.089 8.3 4.7 354 15.8
2010-11-25 08:11:29 51°19.859 2°52.089 5.9 4.7 356 15.2
2010-11-25 08:11:35 51°19.866 2°52.088 6.3 4.7 357 15.4
2010-11-25 08:11:39 51°19.872 2°52.087 6.9 4.9 355 15.5
2010-11-25 08:11:44 51°19.879 2°52.085 6.6 5.3 355 15.7
2010-11-25 08:11:49 51°19.887 2°52.084 6 5.7 355 15.4
2010-11-25 08:11:55 51°19.896 2°52.083 5.3 5.8 356 15.5
2010-11-25 08:11:59 51°19.902 2°52.082 5 5.2 356 14.8
2010-11-25 08:12:03 51°19.907 2°52.08 5.2 4.9 354 15.1
2010-11-25 08:12:09 51°19.915 2°52.079 5.4 4.7 351 16.5
2010-11-25 08:12:15 51°19.923 2°52.078 5.1 4.6 352 16.1
2010-11-25 08:12:19 51°19.928 2°52.077 5.2 4.8 355 15.4
2010-11-25 08:12:23 51°19.934 2°52.075 4.7 5.2 353 15.9
2010-11-25 08:12:29 51°19.943 2°52.074 4.1 5.3 354 16.1
2010-11-25 08:12:34 51°19.95 2°52.073 4.1 5.3 354 16.2
2010-11-25 08:12:39 51°19.957 2°52.071 4.4 5.3 355 15.4
2010-11-25 08:12:44 51°19.965 2°52.07 5.4 5.4 354 15.5
2010-11-25 08:12:49 51°19.973 2°52.069 5 5.8 354 14.9
2010-11-25 08:12:55 51°19.983 2°52.067 5.4 6 355 14.9
2010-11-25 08:12:59 51°19.989 2°52.066 5.2 6 354 15.5
2010-11-25 08:13:04 51°19.998 2°52.065 5.5 6 355 15.4
2010-11-25 08:13:09 51°20.006 2°52.064 5.8 6 356 15.9
2010-11-25 08:13:15 51°20.017 2°52.062 5.3 6.1 355 16
2010-11-25 08:13:19 51°20.024 2°52.061 5.4 6.1 354 15.1
2010-11-25 08:13:23 51°20.031 2°52.06 5.4 6.1 353 15
2010-11-25 08:13:29 51°20.041 2°52.058 4.5 6.3 353 15.5
2010-11-25 08:13:34 51°20.049 2°52.058 5.6 6.1 356 14.9
2010-11-25 08:13:39 51°20.057 2°52.056 4.8 6 352 14.6
2010-11-25 08:13:44 51°20.065 2°52.054 4.4 6 352 15.1
2010-11-25 08:13:49 51°20.074 2°52.053 4.4 6.2 354 15.1
2010-11-25 08:13:55 51°20.085 2°52.051 4.6 6.3 356 14.8
2010-11-25 08:13:59 51°20.092 2°52.05 4.9 6.5 355 13.9
2010-11-25 08:14:03 51°20.098 2°52.05 5.1 6.4 357 13.8
2010-11-25 08:14:09 51°20.109 2°52.048 5.2 6.3 357 14.7
2010-11-25 08:14:15 51°20.119 2°52.047 5.2 6.3 357 14.9
2010-11-25 08:14:19 51°20.126 2°52.046 4.7 6.2 356 14.1
2010-11-25 08:14:23 51°20.132 2°52.046 5.4 6.1 355 14.2
2010-11-25 08:14:29 51°20.142 2°52.044 5.9 5.8 357 15.3
2010-11-25 08:14:34 51°20.15 2°52.043 5.5 5.3 355 15.8
2010-11-25 08:14:39 51°20.157 2°52.043 5.8 5 356 15.8
2010-11-25 08:14:43 51°20.163 2°52.042 5.9 5.1 353 15.2
2010-11-25 08:14:50 51°20.173 2°52.04 5.2 5.1 352 14.9
2010-11-25 08:14:54 51°20.179 2°52.039 5.2 4.8 356 14.8
2010-11-25 08:14:59 51°20.186 2°52.038 6.2 4.9 355 14.8
2010-11-25 08:15:04 51°20.193 2°52.038 7.1 5.1 358 15.2
2010-11-25 08:15:10 51°20.202 2°52.036 5.4 5.4 351 14.4
2010-11-25 08:15:14 51°20.208 2°52.035 5.2 5.4 356 14.9
2010-11-25 08:15:19 51°20.216 2°52.034 5.1 5.6 353 14.7
2010-11-25 08:15:23 51°20.223 2°52.033 5.4 5.6 355 14.7
2010-11-25 08:15:29 51°20.232 2°52.032 6 5.6 353 15
2010-11-25 08:15:34 51°20.24 2°52.031 5.1 5.7 352 14.8
2010-11-25 08:15:39 51°20.248 2°52.03 4.9 5.8 355 14.3
2010-11-25 08:15:44 51°20.256 2°52.029 4.1 5.9 356 13.7
2010-11-25 08:15:49 51°20.264 2°52.028 5.1 6 357 4.7
2010-11-25 08:15:55 51°20.274 2°52.026 4.8 6 356 14.8
2010-11-25 08:15:59 51°20.28 2°52.025 4.6 5.8 354 13.2
2010-11-25 08:16:04 51°20.287 2°52.024 3.9 5.2 353 12.9
2010-11-25 08:16:09 51°20.293 2°52.023 5 4.7 356 12.8
2010-11-25 08:16:14 51°20.298 2°52.022 5.6 4.1 356 13
2010-11-25 08:16:19 51°20.304 2°52.021 7.3 4.2 353 13.9
2010-11-25 08:16:23 51°20.309 2°52.02 5.7 4.7 350 13.7
2010-11-25 08:16:29 51°20.317 2°52.017 3.5 4.9 350 14.4
2010-11-25 08:16:34 51°20.324 2°52.016 3.1 5.2 352 14.7
2010-11-25 08:16:39 51°20.331 2°52.014 3.2 5.4 352 13.7
2010-11-25 08:16:43 51°20.338 2°52.013 4.3 5.5 353 13.8
2010-11-25 08:16:49 51°20.347 2°52.012 5.2 5.8 357 13.8
2010-11-25 08:16:54 51°20.355 2°52.011 4.6 5.7 356 14.3
2010-11-25 08:16:59 51°20.362 2°52.01 5.5 5.6 355 15.5
2010-11-25 08:17:04 51°20.37 2°52.008 5.9 5.6 354 15.2
2010-11-25 08:17:09 51°20.378 2°52.008 5.6 5.5 354 14.8
2010-11-25 08:17:15 51°20.388 2°52.006 5.9 5.6 353 15
2010-11-25 08:17:19 51°20.394 2°52.005 5.2 5.6 356 14.1
2010-11-25 08:17:23 51°20.4 2°52.004 5.2 5.5 355 4.9
2010-11-25 08:17:30 51°20.411 2°52.002 5.8 5.6 356 13.8
2010-11-25 08:17:34 51°20.416 2°52.001 5 5.7 355 13.6
2010-11-25 08:17:39 51°20.424 2°52 5.3 5.7 353 13.6
2010-11-25 08:17:44 51°20.432 2°51.998 4.7 5.8 354 14.1
2010-11-25 08:17:49 51°20.44 2°51.998 5 6 357 13.4
2010-11-25 08:17:55 51°20.45 2°51.996 5 6 354 12.9
2010-11-25 08:17:59 51°20.457 2°51.995 4.6 6.3 354 12.6
2010-11-25 08:18:04 51°20.466 2°51.993 4.2 6.6 352 12.3
2010-11-25 08:18:10 51°20.477 2°51.991 4.3 6.8 354 12.2
2010-11-25 08:18:14 51°20.485 2°51.99 4.4 6.7 354 11.7
2010-11-25 08:18:19 51°20.493 2°51.989 4.8 6.3 355 12.2
2010-11-25 08:18:24 51°20.502 2°51.987 4.8 6.4 353 12.5
2010-11-25 08:18:30 51°20.512 2°51.986 5 6.4 356 12.6
2010-11-25 08:18:35 51°20.521 2°51.986 6.7 6.3 359 13
2010-11-25 08:18:39 51°20.529 2°51.987 9.5 6.3 2 13.4
2010-11-25 08:18:44 51°20.538 2°51.987 10.9 6.5 2 12.3
2010-11-25 08:18:49 51°20.546 2°51.989 11.8 6.4 7 11.9
2010-11-25 08:18:55 51°20.556 2°51.991 14 6.4 8 12.8
2010-11-25 08:18:59 51°20.564 2°51.993 15.5 6.3 8 13.1
2010-11-25 08:19:04 51°20.573 2°51.994 15.3 6.7 7 12.9
2010-11-25 08:19:09 51°20.582 2°51.996 15.5 6.8 9 12.8
2010-11-25 08:19:15 51°20.593 2°51.998 15.1 6.7 8 13.1
2010-11-25 08:19:19 51°20.6 2°52 15.5 6.8 7 13.1
2010-11-25 08:19:24 51°20.61 2°52.002 15.7 6.8 9 12.8
2010-11-25 08:19:30 51°20.621 2°52.005 16.3 6.6 9 13.6
2010-11-25 08:19:35 51°20.63 2°52.008 17.5 6.5 10 14
2010-11-25 08:19:39 51°20.637 2°52.011 17.2 6.4 12 13.4
2010-11-25 08:19:44 51°20.646 2°52.014 17.2 6.6 13 12.6
2010-11-25 08:19:49 51°20.654 2°52.017 18.3 6.4 13 12.9
2010-11-25 08:19:55 51°20.665 2°52.019 17.9 6.6 9 13.3
2010-11-25 08:19:59 51°20.672 2°52.021 16.8 6.6 9 12.9
2010-11-25 08:20:04 51°20.681 2°52.023 16.7 6.4 8 13
2010-11-25 08:20:09 51°20.689 2°52.026 16.7 6.1 12 14.1
2010-11-25 08:20:14 51°20.698 2°52.028 17 5.9 8 13.9
2010-11-25 08:20:19 51°20.706 2°52.031 17.9 5.9 11 13.3
2010-11-25 08:20:24 51°20.714 2°52.033 17.7 6.2 9 13.5
2010-11-25 08:20:29 51°20.723 2°52.036 16.3 6.4 13 13
2010-11-25 08:20:35 51°20.733 2°52.038 15.9 6.4 8 12.9
2010-11-25 08:20:39 51°20.74 2°52.04 17.1 6.2 11 12.6
2010-11-25 08:20:44 51°20.748 2°52.042 16.6 6.1 8 13.2
2010-11-25 08:20:50 51°20.758 2°52.045 16.9 6.2 9 13.3
2010-11-25 08:20:55 51°20.767 2°52.047 16.2 6.5 8 13.4
2010-11-25 08:20:59 51°20.775 2°52.049 15.6 6.6 10 13.6
2010-11-25 08:21:04 51°20.784 2°52.051 15.3 6.8 10 12.7
2010-11-25 08:21:09 51°20.793 2°52.053 14.8 6.4 10 12.3
2010-11-25 08:21:14 51°20.8 2°52.055 16 6 9 13
2010-11-25 08:21:19 51°20.808 2°52.057 15.7 6.1 8 13.4
2010-11-25 08:21:24 51°20.817 2°52.059 14.2 6.1 7 13.4
2010-11-25 08:21:29 51°20.826 2°52.06 14.2 6.3 9 13.9
2010-11-25 08:21:35 51°20.836 2°52.063 14.8 6.4 8 14.5
2010-11-25 08:21:39 51°20.843 2°52.065 14.6 6.3 9 12.9
2010-11-25 08:21:45 51°20.851 2°52.068 15.3 5.2 13 13.4
2010-11-25 08:21:50 51°20.858 2°52.069 18.2 4.8 8 12.8
2010-11-25 08:21:55 51°20.864 2°52.071 16.6 4.9 9 12.8
2010-11-25 08:21:59 51°20.869 2°52.073 15.9 4.7 8 13.6
2010-11-25 08:22:04 51°20.876 2°52.074 16.3 4.8 10 14.3
2010-11-25 08:22:09 51°20.883 2°52.076 15.7 5 11 15.2
2010-11-25 08:22:14 51°20.89 2°52.077 15.4 5.3 6 14.2
2010-11-25 08:22:19 51°20.897 2°52.079 15.5 5.4 8 13.6
2010-11-25 08:22:24 51°20.905 2°52.08 14.9 5.5 7 13.2
2010-11-25 08:22:29 51°20.911 2°52.083 14.8 5.1 12 14.1
2010-11-25 08:22:35 51°20.92 2°52.083 14.5 5.4 6 14.9
2010-11-25 08:22:39 51°20.926 2°52.085 13.6 5.5 10 14.4
2010-11-25 08:22:43 51°20.932 2°52.085 13.8 5.5 9 15.2
2010-11-25 08:22:49 51°20.941 2°52.088 14.6 5.6 8 15.4
2010-11-25 08:22:55 51°20.951 2°52.09 14.8 5.9 8 14.8
2010-11-25 08:22:59 51°20.958 2°52.092 15 6.1 6 14.1
2010-11-25 08:23:03 51°20.964 2°52.093 14.6 6.2 8 14.8
2010-11-25 08:23:09 51°20.975 2°52.095 14.9 6.1 8 15.8
2010-11-25 08:23:14 51°20.983 2°52.097 14.4 6.1 8 15.8
2010-11-25 08:23:19 51°20.991 2°52.099 15.6 6.2 10 16
2010-11-25 08:23:23 51°20.999 2°52.101 15.3 6.2 11 16.1
2010-11-25 08:23:29 51°21.009 2°52.104 15.6 6.2 10 16
2010-11-25 08:23:34 51°21.017 2°52.106 16.1 6.1 10 16.2
2010-11-25 08:23:39 51°21.026 2°52.109 15.9 6.1 8 16.5
2010-11-25 08:23:44 51°21.034 2°52.111 16.1 5.9 11 17
2010-11-25 08:23:49 51°21.042 2°52.114 16.1 5.6 15 4.9
2010-11-25 08:23:55 51°21.051 2°52.118 16.1 5.3 14 17
2010-11-25 08:23:59 51°21.057 2°52.12 16.7 5.3 12 15.9
2010-11-25 08:24:04 51°21.063 2°52.122 15.9 5.2 14 15.5
2010-11-25 08:24:10 51°21.072 2°52.125 16.5 5.1 13 15.3
2010-11-25 08:24:14 51°21.077 2°52.126 16.1 5 13 16.1
2010-11-25 08:24:19 51°21.084 2°52.127 15.1 5.1 6 15.6
2010-11-25 08:24:23 51°21.089 2°52.129 15.2 5.3 9 14.9
2010-11-25 08:24:29 51°21.098 2°52.131 14.8 5.3 8 16.1
2010-11-25 08:24:34 51°21.105 2°52.132 15.7 5.5 7 16.1
2010-11-25 08:24:39 51°21.113 2°52.134 15.5 5.8 7 15.7
2010-11-25 08:24:44 51°21.121 2°52.136 15.1 6.1 9 15.8
2010-11-25 08:24:49 51°21.129 2°52.138 14.4 6 10 15.8
2010-11-25 08:24:55 51°21.139 2°52.141 15.3 6 11 16.4
2010-11-25 08:24:59 51°21.146 2°52.142 14.5 6.3 6 15.9
2010-11-25 08:25:04 51°21.155 2°52.144 13.9 6.4 8 15.5
2010-11-25 08:25:10 51°21.165 2°52.146 14.4 6.2 8 15.4
2010-11-25 08:25:15 51°21.173 2°52.148 15 6.2 9 16.1
2010-11-25 08:25:19 51°21.18 2°52.15 15.4 6.4 8 16
2010-11-25 08:25:24 51°21.189 2°52.152 15.3 6.2 10 15.5
2010-11-25 08:25:30 51°21.198 2°52.155 15.6 5.9 12 16.8
2010-11-25 08:25:35 51°21.206 2°52.158 16.5 5.9 10 16.5
2010-11-25 08:25:39 51°21.213 2°52.159 16.6 6.3 11 16.5
2010-11-25 08:25:44 51°21.222 2°52.162 16.2 6.4 11 16.4
2010-11-25 08:25:49 51°21.231 2°52.164 16.5 6.6 10 17
2010-11-25 08:25:55 51°21.242 2°52.167 16.1 6.6 10 16.5
2010-11-25 08:25:59 51°21.249 2°52.17 16.2 6.6 12 17.5
2010-11-25 08:26:04 51°21.258 2°52.172 16.1 6.5 9 17.2
2010-11-25 08:26:10 51°21.269 2°52.176 16.1 6.2 11 18.5
2010-11-25 08:26:15 51°21.277 2°52.179 15.8 5.9 12 -999
2010-11-25 08:26:19 51°21.283 2°52.181 15.2 5.7 12 18.4
2010-11-25 08:26:24 51°21.291 2°52.182 14.7 5.8 9 18.2
2010-11-25 08:26:29 51°21.299 2°52.184 13.8 5.8 7 17.3
2010-11-25 08:26:34 51°21.307 2°52.185 13.9 5.9 7 17.4
2010-11-25 08:26:39 51°21.315 2°52.188 14.4 6.2 8 17.3
2010-11-25 08:26:43 51°21.322 2°52.189 14.1 6.2 9 17.8
2010-11-25 08:26:49 51°21.333 2°52.191 14.8 6.3 8 18.3
2010-11-25 08:26:54 51°21.341 2°52.193 14.6 6.1 7 18.8
2010-11-25 08:26:59 51°21.35 2°52.195 14.5 5.9 9 19.1
2010-11-25 08:27:04 51°21.358 2°52.197 14.7 5.9 7 18.6
2010-11-25 08:27:09 51°21.366 2°52.199 14.6 5.9 7 18.5
2010-11-25 08:27:14 51°21.375 2°52.201 14.4 6.1 7 18.1
2010-11-25 08:27:19 51°21.383 2°52.203 15.3 6.2 9 18.4
2010-11-25 08:27:24 51°21.392 2°52.205 15 6.5 7 18.1
2010-11-25 08:27:29 51°21.401 2°52.208 15 6.5 10 18.3
2010-11-25 08:27:34 51°21.41 2°52.21 15.7 6.6 7 18
2010-11-25 08:27:39 51°21.419 2°52.212 15.8 6.3 10 19.3
2010-11-25 08:27:44 51°21.428 2°52.215 15.7 6.2 11 19.7
2010-11-25 08:27:49 51°21.436 2°52.217 15.3 6.1 9 19.2
2010-11-25 08:27:55 51°21.446 2°52.22 14.3 6 9 19.3
2010-11-25 08:27:59 51°21.452 2°52.22 13.2 5.9 7 18.3
2010-11-25 08:28:04 51°21.46 2°52.222 13.8 5.8 10 18.3
2010-11-25 08:28:10 51°21.469 2°52.224 15 5.7 7 19.1
2010-11-25 08:28:15 51°21.477 2°52.227 16 5.8 10 19.1
2010-11-25 08:28:19 51°21.484 2°52.228 16.1 5.8 10 19.6
2010-11-25 08:28:24 51°21.492 2°52.231 16.2 6.1 9 19.2
2010-11-25 08:28:30 51°21.503 2°52.234 14.8 6.3 12 18.4
2010-11-25 08:28:34 51°21.509 2°52.236 14.7 6 11 19.1
2010-11-25 08:28:39 51°21.517 2°52.239 17 5.9 14 19.7
2010-11-25 08:28:44 51°21.525 2°52.241 15.9 6 9 20.7
2010-11-25 08:28:50 51°21.535 2°52.244 14.7 6.1 9 20.4
2010-11-25 08:28:55 51°21.544 2°52.246 14.6 6.2 8 19.4
2010-11-25 08:28:59 51°21.551 2°52.247 14.1 6.2 7 20
2010-11-25 08:29:03 51°21.558 2°52.25 14.6 6.4 8 20
2010-11-25 08:29:09 51°21.569 2°52.252 14.4 6.4 9 20.1
2010-11-25 08:29:14 51°21.578 2°52.254 14.7 6.4 10 20.4
2010-11-25 08:29:19 51°21.586 2°52.257 15.2 6.3 9 21.4
2010-11-25 08:29:24 51°21.595 2°52.26 15.3 6.4 11 20.3
2010-11-25 08:29:29 51°21.604 2°52.262 15.6 6.5 10 19.9
2010-11-25 08:29:34 51°21.613 2°52.264 14.7 6.5 10 20.5
2010-11-25 08:29:39 51°21.622 2°52.266 14.3 6.5 9 20.4
2010-11-25 08:29:44 51°21.631 2°52.268 14 6.7 8 20.5
2010-11-25 08:29:49 51°21.64 2°52.271 14.3 6.6 12 21.6
2010-11-25 08:29:54 51°21.649 2°52.273 14.7 6.6 11 22.2
2010-11-25 08:29:59 51°21.657 2°52.276 15.4 6.2 12 21.8
2010-11-25 08:30:04 51°21.666 2°52.279 14.8 6.6 12 21
2010-11-25 08:30:09 51°21.675 2°52.282 14.3 6.5 13 21.5
2010-11-25 08:30:14 51°21.684 2°52.284 14.6 6.5 9 21.9
2010-11-25 08:30:19 51°21.693 2°52.286 13.4 6.6 8 21.3
2010-11-25 08:30:24 51°21.701 2°52.288 14.1 6.5 9 21.2
2010-11-25 08:30:29 51°21.71 2°52.29 15.1 6.4 9 21.4
2010-11-25 08:30:34 51°21.718 2°52.293 15.6 6.5 13 22
2010-11-25 08:30:39 51°21.727 2°52.296 15.2 6.5 10 23.3
2010-11-25 08:30:44 51°21.735 2°52.301 15.7 6.3 19 23
2010-11-25 08:30:49 51°21.744 2°52.303 16.6 6.2 12 22.2
2010-11-25 08:30:55 51°21.755 2°52.306 16.2 6.5 9 21.3
2010-11-25 08:30:59 51°21.762 2°52.308 14.9 6.4 10 21.2
2010-11-25 08:31:04 51°21.77 2°52.311 15.1 6.4 11 22
2010-11-25 08:31:09 51°21.779 2°52.313 15.1 6.5 10 22.8
2010-11-25 08:31:15 51°21.789 2°52.317 15 6.4 13 22.7
2010-11-25 08:31:19 51°21.795 2°52.321 15 6 17 23.3
2010-11-25 08:31:24 51°21.804 2°52.323 16.3 6 12 22.8
2010-11-25 08:31:29 51°21.812 2°52.325 15.6 6.2 8 22.6
2010-11-25 08:31:35 51°21.822 2°52.328 15.1 6.3 10 22.3
2010-11-25 08:31:39 51°21.828 2°52.331 15.3 6.4 11 23.3
2010-11-25 08:31:44 51°21.837 2°52.334 14.6 6.4 13 23.8
2010-11-25 08:31:50 51°21.848 2°52.337 14.8 6.3 11 23
2010-11-25 08:31:54 51°21.854 2°52.339 15.3 6.1 11 22.9
2010-11-25 08:31:59 51°21.863 2°52.341 14.7 6.2 9 23.6
2010-11-25 08:32:04 51°21.872 2°52.344 14.3 6.4 11 22.8
2010-11-25 08:32:09 51°21.88 2°52.346 14.6 6.3 10 22.8
2010-11-25 08:32:14 51°21.889 2°52.349 14.4 6.4 11 22.9
2010-11-25 08:32:19 51°21.897 2°52.352 15.3 6.1 11 23.6
2010-11-25 08:32:24 51°21.905 2°52.355 15.5 5.7 14 23.5
2010-11-25 08:32:29 51°21.913 2°52.359 16.3 5.5 19 24.8
2010-11-25 08:32:35 51°21.922 2°52.362 16.5 5.6 12 24.6
2010-11-25 08:32:39 51°21.928 2°52.365 16.3 5.3 16 23.7
2010-11-25 08:32:44 51°21.935 2°52.367 15.9 5.5 13 23.8
2010-11-25 08:32:50 51°21.945 2°52.37 15.5 5.7 12 23.8
2010-11-25 08:32:55 51°21.953 2°52.372 15.5 5.8 11 23.3
2010-11-25 08:32:59 51°21.959 2°52.374 15.9 6 12 23.4
2010-11-25 08:33:04 51°21.968 2°52.377 15.5 6.2 11 23.1
2010-11-25 08:33:09 51°21.977 2°52.38 15.3 6.4 13 24
2010-11-25 08:33:15 51°21.987 2°52.384 15.5 6.5 13 24.2
2010-11-25 08:33:19 51°21.994 2°52.386 15 6.6 12 23.7
2010-11-25 08:33:24 51°22.004 2°52.389 15.6 6.6 12 23.8
2010-11-25 08:33:29 51°22.013 2°52.392 15.7 6.8 10 23.6
2010-11-25 08:33:34 51°22.023 2°52.396 15.3 7 12 23.2
2010-11-25 08:33:39 51°22.032 2°52.399 15.2 7 12 23.1
2010-11-25 08:33:44 51°22.041 2°52.403 16 7 14 23.8
2010-11-25 08:33:49 51°22.051 2°52.406 15.7 7.1 12 23.1
2010-11-25 08:33:54 51°22.061 2°52.41 15.4 7.2 13 23.5
2010-11-25 08:33:59 51°22.07 2°52.413 15.5 7.2 12 22.9
2010-11-25 08:34:04 51°22.08 2°52.416 15.1 6.9 13 22.8
2010-11-25 08:34:09 51°22.089 2°52.42 15.5 6.7 12 23.7
2010-11-25 08:34:14 51°22.098 2°52.423 15.7 6.6 13 24
2010-11-25 08:34:19 51°22.107 2°52.427 14.9 6.7 13 23.2
2010-11-25 08:34:23 51°22.115 2°52.429 15.6 6.9 13 23.1
2010-11-25 08:34:29 51°22.126 2°52.433 15.5 7.1 14 23.5
2010-11-25 08:34:34 51°22.136 2°52.437 15.3 7.1 13 23.1
2010-11-25 08:34:39 51°22.144 2°52.44 15.1 6.8 14 23